Baruun-Urt, Mongolia
Current Conditions -  °F | °C
As of 8:00 PM on Thursday 30 Oct 2014 (Local Time) from ZMUB Reporting Station
Scattered Clouds Scattered Clouds  
Wind Chill: 22°   Ceiling: Unl
Heat Index: 32°   Visibility: 6mi
Dew Point: 21°   Wind: 13mph
Humidity: 64%   Direction: 140°SE
Pressure: 30.12"   Gusts: NA
Location:  46.68°N, 113.28°E
Report Text: ZMUB 301200Z 14006MPS 9999 FEW033 SCT100 00/M06 Q1020 NOSIG RMK QFE657.4 62 NT
Loading
Personal Weather Stations






























Interactive Weather Map
Tropical Storm Tracking
New forecast layout! Learn more

10-Day Weather Forecast

Advertisements
Track Severe Weather on mobile